createdAt,value
2023-02-15T00:05:04.100Z,26.20
2023-02-15T00:11:06.318Z,27.38
2023-02-15T00:17:08.166Z,26.35
2023-02-15T00:23:10.138Z,27.20
2023-02-15T00:29:13.575Z,23.83
2023-02-15T00:35:16.459Z,26.83
2023-02-15T00:41:18.278Z,27.58
2023-02-15T00:47:20.123Z,36.60
2023-02-15T00:53:22.344Z,38.60
2023-02-15T00:59:24.166Z,39.25
2023-02-15T01:05:26.297Z,40.03
2023-02-15T01:11:28.071Z,34.03
2023-02-15T01:17:30.160Z,35.85
2023-02-15T01:23:33.868Z,37.97
2023-02-15T01:29:35.615Z,36.65
2023-02-15T01:35:38.464Z,36.90
2023-02-15T01:41:40.246Z,31.25
2023-02-15T01:47:48.280Z,29.95
2023-02-15T01:53:57.210Z,34.67
2023-02-15T02:00:03.932Z,40.97
2023-02-15T02:06:14.509Z,36.40
2023-02-15T02:12:18.405Z,41.42
2023-02-15T02:18:52.406Z,43.78
2023-02-15T02:25:19.579Z,40.65
2023-02-15T02:32:04.321Z,40.25
2023-02-15T02:38:12.842Z,38.22
2023-02-15T02:44:24.661Z,42.22
2023-02-15T02:50:30.864Z,36.72
2023-02-15T02:56:44.083Z,39.75
2023-02-15T03:02:50.049Z,41.08
2023-02-15T03:09:19.650Z,39.30
2023-02-15T03:15:25.393Z,37.50
2023-02-15T03:21:50.537Z,37.42
2023-02-15T03:28:06.495Z,37.13
2023-02-15T03:34:14.369Z,35.45
2023-02-15T03:40:39.025Z,35.88
2023-02-15T03:46:49.828Z,40.05
2023-02-15T03:52:54.529Z,31.48
2023-02-15T03:59:14.948Z,35.85
2023-02-15T04:05:16.939Z,37.05
2023-02-15T04:11:18.743Z,33.50
2023-02-15T04:17:20.590Z,40.90
2023-02-15T04:23:40.959Z,34.30
2023-02-15T04:29:42.787Z,37.70
2023-02-15T04:35:51.730Z,35.40
2023-02-15T04:41:53.584Z,36.47
2023-02-15T04:47:58.016Z,34.72
2023-02-15T04:53:59.957Z,33.78
2023-02-15T05:00:01.971Z,30.90
2023-02-15T05:06:09.741Z,34.42
2023-02-15T05:12:12.653Z,34.05
2023-02-15T05:18:18.286Z,32.05
2023-02-15T05:24:38.510Z,35.13
2023-02-15T05:30:40.813Z,36.80
2023-02-15T05:36:42.635Z,33.17
2023-02-15T05:42:44.445Z,35.03
2023-02-15T05:48:46.202Z,36.00
2023-02-15T05:54:48.086Z,36.65
2023-02-15T06:00:49.851Z,41.38
2023-02-15T06:06:53.845Z,35.10
2023-02-15T06:12:55.683Z,37.20
2023-02-15T06:18:57.515Z,38.58
2023-02-15T06:25:01.441Z,37.78
2023-02-15T06:31:04.137Z,42.00
2023-02-15T06:37:06.119Z,43.40
2023-02-15T06:43:11.680Z,44.03
2023-02-15T06:49:18.803Z,40.33
2023-02-15T06:55:20.667Z,45.67
2023-02-15T07:01:22.547Z,36.40
2023-02-15T07:07:24.524Z,47.28
2023-02-15T07:13:26.868Z,42.83
2023-02-15T07:19:42.913Z,33.05
2023-02-15T07:25:44.750Z,35.53
2023-02-15T07:31:46.890Z,33.83
2023-02-15T07:37:52.589Z,29.02
2023-02-15T07:43:54.796Z,29.20
2023-02-15T07:49:57.083Z,26.17
2023-02-15T07:56:09.759Z,25.98
2023-02-15T08:02:12.364Z,26.30
2023-02-15T08:08:32.151Z,27.05
2023-02-15T08:14:34.148Z,26.60
2023-02-15T08:20:36.300Z,27.63
2023-02-15T08:26:41.974Z,26.60
2023-02-15T08:32:44.402Z,29.27
2023-02-15T08:38:46.808Z,30.02
2023-02-15T08:44:51.552Z,28.58
2023-02-15T08:50:55.436Z,29.70
2023-02-15T08:57:01.492Z,30.25
2023-02-15T09:03:03.704Z,30.90
2023-02-15T09:09:06.387Z,30.60
2023-02-15T09:15:08.884Z,31.15
2023-02-15T09:21:31.554Z,27.85
2023-02-15T09:27:33.737Z,24.90
2023-02-15T09:33:37.444Z,25.00
2023-02-15T09:39:42.541Z,23.23
2023-02-15T09:46:26.805Z,23.42
2023-02-15T09:52:31.945Z,22.20
2023-02-15T09:58:53.673Z,21.55
2023-02-15T10:05:33.573Z,23.13
2023-02-15T10:11:53.289Z,22.73
2023-02-15T10:18:20.824Z,22.27
2023-02-15T10:24:31.604Z,21.73
2023-02-15T10:30:50.156Z,21.65
2023-02-15T10:37:29.574Z,21.95
2023-02-15T10:44:00.205Z,20.45
2023-02-15T10:50:23.501Z,19.17
2023-02-15T10:56:27.955Z,17.88
2023-02-15T11:02:40.526Z,16.92
2023-02-15T11:08:54.284Z,16.10
2023-02-15T11:15:05.081Z,16.70
2023-02-15T11:21:19.264Z,16.40
2023-02-15T11:27:27.953Z,15.85
2023-02-15T11:33:35.974Z,15.23
2023-02-15T11:39:38.437Z,14.55
2023-02-15T11:45:43.792Z,15.32
2023-02-15T11:51:48.801Z,14.45
2023-02-15T11:58:26.014Z,14.88
2023-02-15T12:04:38.232Z,15.48
2023-02-15T12:11:06.783Z,16.20
2023-02-15T12:17:14.754Z,16.10
2023-02-15T12:23:18.651Z,15.60
2023-02-15T12:29:25.099Z,15.75
2023-02-15T12:35:32.499Z,15.15
2023-02-15T12:41:35.212Z,14.77
2023-02-15T12:47:37.124Z,14.77
2023-02-15T12:53:39.766Z,15.13
2023-02-15T12:59:58.105Z,14.43
2023-02-15T13:06:00.471Z,13.65
2023-02-15T13:12:17.070Z,13.45
2023-02-15T13:18:32.590Z,13.27
2023-02-15T13:24:41.859Z,12.75
2023-02-15T13:30:47.685Z,13.38
2023-02-15T13:37:24.917Z,12.63
2023-02-15T13:43:45.462Z,12.80
2023-02-15T13:50:05.929Z,11.73
2023-02-15T13:56:16.477Z,13.63
2023-02-15T14:02:50.182Z,12.32
2023-02-15T14:09:18.747Z,13.05
2023-02-15T14:15:26.312Z,12.93
2023-02-15T14:21:49.727Z,13.13
2023-02-15T14:28:03.450Z,14.18
2023-02-15T14:34:05.288Z,13.82
2023-02-15T14:40:50.601Z,13.30
2023-02-15T14:47:19.246Z,13.13
2023-02-15T14:53:39.344Z,12.75
2023-02-15T14:59:53.531Z,13.50
2023-02-15T15:06:06.121Z,13.43
2023-02-15T15:12:23.290Z,12.82
2023-02-15T15:18:46.700Z,13.80
2023-02-15T15:24:52.034Z,14.07
2023-02-15T15:30:55.549Z,13.93
2023-02-15T15:37:31.278Z,14.30
2023-02-15T15:44:01.134Z,14.02
2023-02-15T15:50:17.871Z,13.95
2023-02-15T15:56:28.983Z,15.55
2023-02-15T16:02:30.844Z,13.25
2023-02-15T16:08:40.021Z,15.38
2023-02-15T16:14:43.854Z,15.63
2023-02-15T16:20:56.071Z,14.35
2023-02-15T16:27:18.261Z,15.25
2023-02-15T16:33:21.176Z,14.85
2023-02-15T16:39:22.994Z,15.30
2023-02-15T16:45:27.934Z,16.52
2023-02-15T16:51:33.766Z,14.77
2023-02-15T16:57:39.254Z,15.38
2023-02-15T17:03:42.412Z,14.82
2023-02-15T17:09:55.774Z,14.20
2023-02-15T17:16:01.045Z,14.65
2023-02-15T17:22:05.302Z,14.05
2023-02-15T17:28:18.475Z,15.85
2023-02-15T17:34:44.109Z,14.60
2023-02-15T17:40:45.998Z,18.10
2023-02-15T17:46:47.836Z,16.73
2023-02-15T17:52:50.775Z,17.38
2023-02-15T17:58:52.555Z,18.35
2023-02-15T18:05:12.957Z,19.95
2023-02-15T18:11:33.241Z,19.90
2023-02-15T18:17:40.026Z,20.35
2023-02-15T18:23:42.600Z,23.50
2023-02-15T18:29:44.460Z,20.40
2023-02-15T18:36:07.106Z,19.85
2023-02-15T18:42:27.355Z,19.63
2023-02-15T18:48:29.123Z,19.83
2023-02-15T18:54:31.027Z,21.85
2023-02-15T19:00:34.758Z,24.48
2023-02-15T19:06:40.241Z,27.95
2023-02-15T19:12:42.209Z,24.85
2023-02-15T19:18:44.112Z,26.48
2023-02-15T19:24:47.756Z,21.70
2023-02-15T19:30:49.596Z,21.25
2023-02-15T19:36:54.134Z,21.50
2023-02-15T19:42:56.564Z,21.20
2023-02-15T19:48:59.078Z,21.73
2023-02-15T19:55:00.889Z,21.10
2023-02-15T20:01:03.378Z,22.60
2023-02-15T20:07:14.884Z,21.63
2023-02-15T20:13:18.943Z,23.17
2023-02-15T20:19:20.938Z,23.60
2023-02-15T20:25:26.451Z,24.17
2023-02-15T20:31:28.464Z,25.55
2023-02-15T20:37:33.010Z,27.27
2023-02-15T20:43:35.974Z,27.60
2023-02-15T20:49:38.686Z,27.10
2023-02-15T20:55:40.528Z,27.35
2023-02-15T21:01:42.344Z,30.25
2023-02-15T21:07:44.638Z,28.42
2023-02-15T21:13:47.449Z,29.77
2023-02-15T21:19:49.214Z,30.83
2023-02-15T21:25:51.419Z,32.80
2023-02-15T21:31:53.738Z,30.10
2023-02-15T21:37:56.204Z,30.70
2023-02-15T21:44:16.370Z,31.95
2023-02-15T21:50:42.431Z,29.80
2023-02-15T21:57:33.967Z,35.40
2023-02-15T22:03:38.144Z,35.63
2023-02-15T22:09:40.034Z,35.72
2023-02-15T22:15:42.340Z,39.28
2023-02-15T22:21:44.231Z,40.03
2023-02-15T22:27:47.236Z,39.63
2023-02-15T22:33:51.031Z,39.45
2023-02-15T22:39:52.868Z,38.33
2023-02-15T22:46:00.517Z,39.75
2023-02-15T22:52:02.373Z,40.60
2023-02-15T22:58:05.042Z,44.47
2023-02-15T23:04:07.144Z,43.38
2023-02-15T23:10:21.057Z,42.75
2023-02-15T23:16:23.002Z,42.17
2023-02-15T23:22:24.844Z,41.13
2023-02-15T23:28:33.934Z,39.67
2023-02-15T23:34:35.747Z,41.50
2023-02-15T23:40:56.164Z,42.97
2023-02-15T23:46:58.214Z,38.53
2023-02-15T23:53:01.294Z,40.00
2023-02-15T23:59:03.965Z,41.33
